• Join FlightAware (Why Join?)
  • Login
  • US Flag 
11:34AM EDT


 

Airport Tracker/Info


-or-


 

Live Flight TrackerFlight Track Log ✈ CES2889 ✈ 12-Jun-2013 ✈ ZSCN / KHN - ZGZH / LZH

Flight Track Log - Related Links

Times and Time Zones

All times are in EDT time to prevent confusion due to time zone crossing. See the CES2889 flight status page for this flight to view local times or setup timezone preferences in your user account.

Time Position Orientation Groundspeed Altitude Reporting Facility
EDT Latitude Longitude Course Direction KTS MPH feet Rate Location/Type
05:08AM 27.3229 113.6380 233° Southwest  Level Estimated
05:09AM 27.2579 113.5452 232° Southwest  Level Estimated
05:10AM 27.1928 113.4524 232° Southwest  Level Estimated
05:11AM 27.1276 113.3598 232° Southwest  Level Estimated
05:12AM 27.0624 113.2673 232° Southwest  Level Estimated
05:13AM 26.9971 113.1748 232° Southwest  Level Estimated
05:14AM 26.9317 113.0825 232° Southwest  Level Estimated
05:15AM 26.8663 112.9903 232° Southwest  Level Estimated
05:16AM 26.8009 112.8982 231° Southwest  Level Estimated
05:17AM 26.7353 112.8062 231° Southwest  Level Estimated
05:18AM 26.6698 112.7143 231° Southwest  Level Estimated
05:19AM 26.6041 112.6225 231° Southwest  Level Estimated
05:20AM 26.5384 112.5309 231° Southwest  Level Estimated
05:21AM 26.4726 112.4393 231° Southwest  Level Estimated
05:22AM 26.4068 112.3478 231° Southwest  Level Estimated
05:23AM 26.3409 112.2565 231° Southwest  Level Estimated
05:24AM 26.2750 112.1652 231° Southwest  Level Estimated
05:25AM 26.2090 112.0740 231° Southwest  Level Estimated
05:26AM 26.1430 111.9830 231° Southwest  Level Estimated
05:27AM 26.0769 111.8920 231° Southwest  Level Estimated
05:28AM 26.0107 111.8012 231° Southwest  Level Estimated
05:29AM 25.9445 111.7104 231° Southwest  Level Estimated
05:30AM 25.8782 111.6198 231° Southwest  Level Estimated
05:31AM 25.8118 111.5293 231° Southwest  Level Estimated
05:32AM 25.7454 111.4388 231° Southwest  Level Estimated
05:33AM 25.6790 111.3485 231° Southwest  Level Estimated
05:34AM 25.6125 111.2582 231° Southwest  Level Estimated
05:35AM 25.5459 111.1681 231° Southwest  Level Estimated
05:36AM 25.4793 111.0781 231° Southwest  Level Estimated
05:37AM 25.4127 110.9881 231° Southwest  Level Estimated
05:38AM 25.3459 110.8983 231° Southwest  Level Estimated
05:39AM 25.2792 110.8085 231° Southwest  Level Estimated
05:40AM 25.2123 110.7189 231° Southwest  Level Estimated
05:41AM 25.1454 110.6294 230° Southwest  Level Estimated
05:42AM 25.0785 110.5399 230° Southwest  Level Estimated
05:43AM 25.0115 110.4506 230° Southwest  Level Estimated
05:44AM 24.9445 110.3613 230° Southwest  Level Estimated
05:45AM 24.8774 110.2722 230° Southwest  Level Estimated
05:46AM 24.8102 110.1831 230° Southwest  Level Estimated
05:47AM 24.7430 110.0941 230° Southwest  Level Estimated
05:48AM 24.6758 110.0053 230° Southwest  Level Estimated
05:49AM 24.6084 109.9165 230° Southwest  Level Estimated
05:50AM 24.5411 109.8278 230° Southwest  Level Estimated
05:51AM 24.4737 109.7393 230° Southwest  Level Estimated
05:52AM 24.4062 109.6508 230° Southwest  Level Estimated
05:53AM 24.3387 109.5624 230° Southwest  Level Estimated
05:54AM 24.2711 109.4741 230° Southwest  Level Estimated
05:55AM 24.2075 109.3911 230° Southwest  Level Estimated
05:56AM 24.2075 109.3911 90° East  Level Estimated
05:57AM 24.2075 109.3911 90° East  Level Estimated
05:58AM 24.2075 109.3911 90° East  Level Estimated
05:59AM 24.2075 109.3911 90° East  Level Estimated
06:00AM 24.2075 109.3911 90° East  Level Estimated
06:01AM 24.2075 109.3911 90° East  Level Estimated
06:02AM 24.2075 109.3911 90° East  Level Estimated
06:03AM 24.2075 109.3911 90° East  Level Estimated
06:04AM 24.2075 109.3911 90° East  Level Estimated
06:05AM 24.2075 109.3911 90° East  Level Estimated
06:06AM 24.2075 109.3911 90° East  Level Estimated
06:07AM 24.2075 109.3911 90° East  Level Estimated
06:08AM 24.2075 109.3911 90° East  Level Estimated
06:09AM 24.2075 109.3911 90° East  Level Estimated
06:10AM 24.2075 109.3911 90° East  Level Estimated
06:11AM 24.2075 109.3911 90° East  Level Estimated